createdAt,value
2023-04-03T00:01:39.432Z,94726.17
2023-04-03T00:04:08.670Z,94724.45
2023-04-03T00:06:37.302Z,94723.58
2023-04-03T00:09:07.652Z,94719.48
2023-04-03T00:11:36.723Z,94718.65
2023-04-03T00:14:05.463Z,94713.50
2023-04-03T00:16:34.246Z,94707.89
2023-04-03T00:19:02.990Z,94711.91
2023-04-03T00:21:31.690Z,94704.36
2023-04-03T00:24:00.297Z,94702.14
2023-04-03T00:26:28.858Z,94695.72
2023-04-03T00:28:57.445Z,94698.30
2023-04-03T00:31:26.187Z,94699.91
2023-04-03T00:33:54.787Z,94695.92
2023-04-03T00:36:23.525Z,94700.02
2023-04-03T00:38:53.840Z,94712.09
2023-04-03T00:41:22.575Z,94704.86
2023-04-03T00:43:51.231Z,94707.52
2023-04-03T00:46:19.966Z,94715.73
2023-04-03T00:48:50.498Z,94715.94
2023-04-03T00:51:25.566Z,94719.91
2023-04-03T00:53:57.640Z,94716.37
2023-04-03T00:56:28.880Z,94716.01
2023-04-03T00:59:01.905Z,94716.52
2023-04-03T01:01:35.366Z,94717.56
2023-04-03T01:04:05.226Z,94716.42
2023-04-03T01:06:37.142Z,94724.36
2023-04-03T01:09:07.165Z,94721.92
2023-04-03T01:11:35.945Z,94721.72
2023-04-03T01:14:07.531Z,94717.81
2023-04-03T01:16:36.663Z,94726.45
2023-04-03T01:19:07.444Z,94725.20
2023-04-03T01:21:42.107Z,94724.84
2023-04-03T01:24:19.854Z,94726.99
2023-04-03T01:26:48.576Z,94716.77
2023-04-03T01:29:17.266Z,94718.08
2023-04-03T01:31:54.845Z,94726.08
2023-04-03T01:34:23.954Z,94722.05
2023-04-03T01:36:53.760Z,94724.52
2023-04-03T01:39:22.692Z,94721.47
2023-04-03T01:41:51.908Z,94718.91
2023-04-03T01:44:20.605Z,94716.47
2023-04-03T01:46:49.360Z,94712.30
2023-04-03T01:49:18.127Z,94716.27
2023-04-03T01:51:46.756Z,94719.87
2023-04-03T01:54:15.485Z,94716.12
2023-04-03T01:56:44.361Z,94718.55
2023-04-03T01:59:13.024Z,94727.11
2023-04-03T02:01:41.899Z,94728.88
2023-04-03T02:04:10.765Z,94725.11
2023-04-03T02:06:39.460Z,94723.64
2023-04-03T02:09:08.136Z,94728.78
2023-04-03T02:11:36.857Z,94725.28
2023-04-03T02:14:05.594Z,94727.63
2023-04-03T02:16:34.440Z,94723.45
2023-04-03T02:19:03.166Z,94729.16
2023-04-03T02:21:31.802Z,94731.44
2023-04-03T02:24:00.629Z,94725.78
2023-04-03T02:26:29.282Z,94729.84
2023-04-03T02:28:58.004Z,94724.67
2023-04-03T02:31:26.812Z,94715.67
2023-04-03T02:33:55.787Z,94711.45
2023-04-03T02:36:24.527Z,94705.80
2023-04-03T02:38:53.102Z,94707.79
2023-04-03T02:41:22.098Z,94704.42
2023-04-03T02:43:50.915Z,94702.25
2023-04-03T02:46:19.664Z,94703.41
2023-04-03T02:48:48.556Z,94703.06
2023-04-03T02:51:17.292Z,94709.60
2023-04-03T02:53:46.061Z,94705.64
2023-04-03T02:56:14.837Z,94696.27
2023-04-03T02:58:43.524Z,94693.38
2023-04-03T03:01:13.907Z,94692.05
2023-04-03T03:03:42.619Z,94695.55
2023-04-03T03:06:14.247Z,94696.11
2023-04-03T03:08:43.621Z,94696.02
2023-04-03T03:11:17.146Z,94691.77
2023-04-03T03:13:48.562Z,94691.27
2023-04-03T03:16:22.718Z,94685.86
2023-04-03T03:18:51.416Z,94681.48
2023-04-03T03:21:23.221Z,94683.77
2023-04-03T03:23:51.962Z,94680.81
2023-04-03T03:26:20.662Z,94680.37
2023-04-03T03:28:50.423Z,94684.84
2023-04-03T03:31:19.031Z,94679.56
2023-04-03T03:33:48.211Z,94681.53
2023-04-03T03:36:17.072Z,94687.07
2023-04-03T03:38:45.734Z,94686.00
2023-04-03T03:41:14.312Z,94684.78
2023-04-03T03:43:42.984Z,94688.64
2023-04-03T03:46:11.676Z,94688.52
2023-04-03T03:48:40.527Z,94696.40
2023-04-03T03:51:09.326Z,94683.72
2023-04-03T03:53:38.046Z,94679.27
2023-04-03T03:56:09.850Z,94680.52
2023-04-03T03:58:38.566Z,94687.23
2023-04-03T04:01:08.490Z,94688.86
2023-04-03T04:03:39.002Z,94688.86
2023-04-03T04:06:13.997Z,94685.83
2023-04-03T04:14:34.690Z,94681.48
2023-04-03T04:17:03.704Z,94683.68
2023-04-03T04:19:32.571Z,94668.78
2023-04-03T04:22:03.912Z,94695.90
2023-04-03T04:24:34.347Z,94704.20
2023-04-03T04:27:03.310Z,94689.34
2023-04-03T04:29:37.989Z,94708.92
2023-04-03T04:32:07.402Z,94713.09
2023-04-03T04:34:43.431Z,94708.70
2023-04-03T04:37:13.725Z,94707.94
2023-04-03T04:39:44.141Z,94710.59
2023-04-03T04:42:17.439Z,94715.12
2023-04-03T04:44:46.406Z,94716.67
2023-04-03T04:47:15.202Z,94714.53
2023-04-03T04:49:45.580Z,94718.16
2023-04-03T04:52:14.320Z,94719.77
2023-04-03T04:54:42.992Z,94729.86
2023-04-03T04:57:12.017Z,94733.97
2023-04-03T04:59:41.015Z,94733.05
2023-04-03T05:02:09.728Z,94727.31
2023-04-03T05:04:40.562Z,94731.89
2023-04-03T05:07:09.024Z,94740.81
2023-04-03T05:09:37.669Z,94742.06
2023-04-03T05:12:06.458Z,94751.80
2023-04-03T05:14:35.128Z,94752.79
2023-04-03T05:17:03.549Z,94757.37
2023-04-03T05:19:32.159Z,94758.75
2023-04-03T05:22:01.162Z,94753.50
2023-04-03T05:24:29.922Z,94764.17
2023-04-03T05:26:58.696Z,94764.69
2023-04-03T05:29:27.359Z,94754.89
2023-04-03T05:31:56.552Z,94759.75
2023-04-03T05:34:25.389Z,94758.61
2023-04-03T05:36:55.639Z,94755.91
2023-04-03T05:39:25.335Z,94755.97
2023-04-03T05:41:56.908Z,94750.31
2023-04-03T05:44:27.331Z,94753.34
2023-04-03T05:47:04.413Z,94751.94
2023-04-03T05:49:35.971Z,94756.75
2023-04-03T05:52:04.675Z,94752.48
2023-04-03T05:54:33.740Z,94742.84
2023-04-03T05:57:02.537Z,94747.09
2023-04-03T05:59:31.221Z,94752.18
2023-04-03T06:01:59.887Z,94746.58
2023-04-03T06:04:31.737Z,94739.30
2023-04-03T06:07:26.242Z,94740.77
2023-04-03T06:09:58.193Z,94744.80
2023-04-03T06:12:27.106Z,94736.27
2023-04-03T06:14:57.433Z,94730.98
2023-04-03T06:17:26.438Z,94721.30
2023-04-03T06:19:59.707Z,94723.30
2023-04-03T06:22:32.219Z,94716.41
2023-04-03T06:25:01.003Z,94713.95
2023-04-03T06:27:30.132Z,94716.68
2023-04-03T06:30:02.022Z,94725.14
2023-04-03T06:32:31.084Z,94733.04
2023-04-03T06:35:01.779Z,94735.48
2023-04-03T06:37:31.848Z,94738.28
2023-04-03T06:40:02.853Z,94742.74
2023-04-03T06:42:31.551Z,94748.16
2023-04-03T06:45:04.525Z,94753.48
2023-04-03T06:47:33.469Z,94761.96
2023-04-03T06:50:05.324Z,94759.09
2023-04-03T06:52:34.205Z,94737.06
2023-04-03T06:55:02.953Z,94743.41
2023-04-03T06:57:32.482Z,94748.16
2023-04-03T07:00:10.588Z,94751.94
2023-04-03T07:02:43.874Z,94751.95
2023-04-03T07:05:14.290Z,94755.45
2023-04-03T07:07:43.100Z,94679.05
2023-04-03T07:16:43.089Z,94740.55
2023-04-03T07:19:12.085Z,94738.27
2023-04-03T07:21:51.663Z,94731.64
2023-04-03T07:27:09.809Z,94732.97
2023-04-03T07:29:38.833Z,94724.67
2023-04-03T07:32:13.181Z,94723.20
2023-04-03T07:34:43.821Z,94726.59
2023-04-03T07:37:13.866Z,94721.07
2023-04-03T07:39:46.217Z,94720.33
2023-04-03T07:42:15.119Z,94727.81
2023-04-03T07:44:43.883Z,94712.56
2023-04-03T07:47:23.035Z,94714.48
2023-04-03T07:49:48.271Z,94716.07
2023-04-03T07:52:17.363Z,94704.28
2023-04-03T08:08:13.021Z,94662.12
2023-04-03T08:10:56.298Z,94690.09
2023-04-03T08:13:33.357Z,94698.14
2023-04-03T08:16:22.326Z,94691.24
2023-04-03T08:18:53.939Z,94682.01
2023-04-03T08:21:23.284Z,94688.87
2023-04-03T08:23:52.932Z,94678.73
2023-04-03T08:26:23.212Z,94680.72
2023-04-03T08:28:51.973Z,94634.22
2023-04-03T08:31:21.765Z,94679.74
2023-04-03T08:33:50.640Z,94684.94
2023-04-03T08:36:25.101Z,94681.95
2023-04-03T08:38:54.329Z,94681.84
2023-04-03T08:41:41.099Z,94674.55
2023-04-03T08:44:32.168Z,94670.67
2023-04-03T08:47:29.238Z,94665.07
2023-04-03T08:50:01.491Z,94664.58
2023-04-03T08:55:59.701Z,94659.30
2023-04-03T08:58:34.077Z,94656.96
2023-04-03T09:01:11.655Z,94649.73
2023-04-03T09:03:46.229Z,94648.67
2023-04-03T09:06:23.664Z,94642.84
2023-04-03T09:09:17.932Z,94645.23
2023-04-03T09:12:07.512Z,94631.88
2023-04-03T09:14:56.174Z,94624.49
2023-04-03T09:17:36.690Z,94621.64
2023-04-03T09:20:12.004Z,94615.05
2023-04-03T09:22:51.415Z,94615.59
2023-04-03T09:25:30.544Z,94613.63
2023-04-03T09:27:59.438Z,94614.88
2023-04-03T09:30:31.553Z,94608.91
2023-04-03T09:33:00.284Z,94605.17
2023-04-03T09:35:47.462Z,94606.69
2023-04-03T09:38:17.273Z,94605.34
2023-04-03T09:40:51.112Z,94606.13
2023-04-03T09:43:22.867Z,94591.58
2023-04-03T09:46:07.436Z,94606.62
2023-04-03T09:48:39.830Z,94600.61
2023-04-03T09:51:11.653Z,94592.01
2023-04-03T09:53:43.470Z,94587.30
2023-04-03T09:56:23.347Z,94590.80
2023-04-03T09:59:27.449Z,94582.55
2023-04-03T10:02:44.860Z,94581.11
2023-04-03T10:05:37.352Z,94578.42
2023-04-03T10:08:55.053Z,94515.98
2023-04-03T10:11:23.119Z,94580.69
2023-04-03T10:13:58.666Z,94576.59
2023-04-03T10:16:33.863Z,94576.78
2023-04-03T10:19:27.221Z,94571.33
2023-04-03T10:22:10.967Z,94575.03
2023-04-03T10:25:05.668Z,94578.08
2023-04-03T10:27:43.402Z,94571.73
2023-04-03T10:30:23.822Z,94565.80
2023-04-03T10:33:07.363Z,94560.95
2023-04-03T10:36:01.633Z,94561.30
2023-04-03T10:38:42.433Z,94553.66
2023-04-03T10:41:21.061Z,94547.06
2023-04-03T10:44:08.553Z,94539.09
2023-04-03T10:47:09.541Z,94544.56
2023-04-03T10:50:02.302Z,94540.28
2023-04-03T10:52:40.819Z,94532.19
2023-04-03T10:55:32.135Z,94534.84
2023-04-03T10:58:03.165Z,94538.70
2023-04-03T11:00:50.230Z,94532.96
2023-04-03T11:03:32.364Z,94532.38
2023-04-03T11:06:06.245Z,94539.56
2023-04-03T11:08:59.399Z,94531.94
2023-04-03T11:11:35.802Z,94539.30
2023-04-03T11:14:17.355Z,94543.25
2023-04-03T11:16:54.370Z,94550.39
2023-04-03T11:19:37.513Z,94552.96
2023-04-03T11:22:14.999Z,94484.50
2023-04-03T11:24:47.175Z,94547.17
2023-04-03T11:27:23.903Z,94543.37
2023-04-03T11:29:55.393Z,94546.22
2023-04-03T11:32:27.396Z,94543.14
2023-04-03T11:35:01.810Z,94547.77
2023-04-03T11:37:39.470Z,94544.19
2023-04-03T11:40:20.627Z,94548.06
2023-04-03T11:42:52.012Z,94545.46
2023-04-03T11:45:39.717Z,94543.16
2023-04-03T11:48:34.265Z,94543.31
2023-04-03T11:51:22.294Z,94538.14
2023-04-03T11:53:52.937Z,94539.45
2023-04-03T11:56:31.825Z,94547.30
2023-04-03T11:59:19.414Z,94542.64
2023-04-03T12:01:58.727Z,94551.16
2023-04-03T12:04:29.914Z,94546.36
2023-04-03T12:07:21.348Z,94546.14
2023-04-03T12:09:53.011Z,94548.66
2023-04-03T12:12:33.679Z,94553.17
2023-04-03T12:15:22.122Z,94554.73
2023-04-03T12:17:53.773Z,94556.89
2023-04-03T12:20:57.591Z,94557.13
2023-04-03T12:23:40.896Z,94548.48
2023-04-03T12:26:53.816Z,94539.59
2023-04-03T12:29:31.932Z,94543.11
2023-04-03T12:32:12.186Z,94537.11
2023-04-03T12:35:09.622Z,94538.11
2023-04-03T12:37:59.020Z,94517.47
2023-04-03T12:40:46.342Z,94530.42
2023-04-03T12:43:39.349Z,94527.56
2023-04-03T12:46:12.890Z,94519.95
2023-04-03T13:04:47.151Z,94497.91
2023-04-03T13:07:34.760Z,94497.52
2023-04-03T13:10:08.178Z,94504.17
2023-04-03T13:15:34.238Z,94499.20
2023-04-03T13:18:03.339Z,94500.92
2023-04-03T13:20:39.916Z,94497.31
2023-04-03T13:23:13.075Z,94496.36
2023-04-03T13:25:45.235Z,94495.80
2023-04-03T13:28:17.312Z,94493.50
2023-04-03T13:31:03.493Z,94489.87
2023-04-03T13:33:37.011Z,94486.84
2023-04-03T13:36:20.415Z,94485.51
2023-04-03T13:39:09.899Z,94482.44
2023-04-03T13:41:42.409Z,94486.97
2023-04-03T13:44:29.200Z,94481.81
2023-04-03T13:47:00.388Z,94486.20
2023-04-03T13:49:39.417Z,94484.91
2023-04-03T13:52:32.211Z,94474.64
2023-04-03T13:55:05.792Z,94477.13
2023-04-03T13:57:34.067Z,94468.55
2023-04-03T14:00:04.538Z,94466.63
2023-04-03T14:02:35.604Z,94464.69
2023-04-03T14:05:22.193Z,94463.38
2023-04-03T14:08:00.434Z,94467.39
2023-04-03T14:10:29.159Z,94465.48
2023-04-03T14:12:57.883Z,94459.78
2023-04-03T14:15:29.731Z,94460.16
2023-04-03T14:18:00.418Z,94455.98
2023-04-03T14:20:30.292Z,94459.55
2023-04-03T14:23:02.130Z,94460.53
2023-04-03T14:25:32.528Z,94457.90
2023-04-03T14:28:02.139Z,94457.49
2023-04-03T14:30:33.956Z,94457.88
2023-04-03T14:33:03.777Z,94457.12
2023-04-03T14:35:32.534Z,94459.03
2023-04-03T14:38:01.282Z,94454.44
2023-04-03T14:40:30.291Z,94451.00
2023-04-03T14:42:59.569Z,94446.84
2023-04-03T14:45:31.749Z,94451.78
2023-04-03T14:48:01.623Z,94448.32
2023-04-03T14:50:34.714Z,94444.71
2023-04-03T14:53:03.540Z,94440.55
2023-04-03T14:55:33.023Z,94435.77
2023-04-03T14:58:01.754Z,94437.29
2023-04-03T15:00:31.038Z,94440.69
2023-04-03T15:02:59.940Z,94431.75
2023-04-03T15:05:28.722Z,94419.39
2023-04-03T15:07:59.052Z,94424.16
2023-04-03T15:10:30.848Z,94431.20
2023-04-03T15:12:59.651Z,94432.16
2023-04-03T15:15:31.436Z,94426.06
2023-04-03T15:18:00.454Z,94422.64
2023-04-03T15:20:31.992Z,94421.87
2023-04-03T15:23:03.971Z,94410.11
2023-04-03T15:25:36.766Z,94409.92
2023-04-03T15:28:06.014Z,94408.78
2023-04-03T15:30:46.925Z,94413.33
2023-04-03T15:36:22.956Z,94409.35
2023-04-03T15:38:39.881Z,94406.31
2023-04-03T15:41:08.659Z,94406.89
2023-04-03T15:43:39.110Z,94398.34
2023-04-03T15:46:07.914Z,94398.31
2023-04-03T15:48:44.813Z,94389.19
2023-04-03T15:51:26.759Z,94386.73
2023-04-03T15:59:54.894Z,94323.63
2023-04-03T16:02:25.662Z,94382.69
2023-04-03T16:07:06.394Z,94380.20
2023-04-03T16:08:45.494Z,94376.75
2023-04-03T16:11:37.225Z,94376.19
2023-04-03T16:14:08.399Z,94367.66
2023-04-03T16:16:38.822Z,94371.45
2023-04-03T16:19:08.106Z,94369.37
2023-04-03T16:21:36.877Z,94364.77
2023-04-03T16:24:07.516Z,94357.15
2023-04-03T16:29:40.861Z,94343.48
2023-04-03T16:32:11.126Z,94343.31
2023-04-03T16:34:42.413Z,94340.66
2023-04-03T16:37:13.276Z,94344.47
2023-04-03T16:39:45.454Z,94340.67
2023-04-03T16:42:14.172Z,94334.22
2023-04-03T16:44:43.363Z,94320.33
2023-04-03T16:47:14.238Z,94299.27
2023-04-03T16:49:46.195Z,94293.38
2023-04-03T16:52:20.417Z,94281.19
2023-04-03T16:54:49.198Z,94271.91
2023-04-03T16:57:23.131Z,94266.61
2023-04-03T16:59:53.260Z,94257.09
2023-04-03T17:02:24.865Z,94252.77
2023-04-03T17:04:57.432Z,94256.17
2023-04-03T17:07:27.763Z,94256.34
2023-04-03T17:09:56.966Z,94243.81
2023-04-03T17:12:27.325Z,94247.03
2023-04-03T17:14:57.766Z,94242.66
2023-04-03T17:17:27.603Z,94241.13
2023-04-03T17:19:57.559Z,94237.91
2023-04-03T17:22:26.549Z,94241.53
2023-04-03T17:24:55.522Z,94243.81
2023-04-03T17:27:24.264Z,94244.56
2023-04-03T17:29:53.047Z,94241.84
2023-04-03T17:32:21.832Z,94235.58
2023-04-03T17:35:01.228Z,94229.52
2023-04-03T17:37:34.458Z,94232.39
2023-04-03T17:40:16.721Z,94233.67
2023-04-03T17:42:51.998Z,94149.66
2023-04-03T17:45:20.794Z,94217.36
2023-04-03T17:47:50.260Z,94217.34
2023-04-03T17:50:19.805Z,94220.22
2023-04-03T17:52:48.726Z,94219.88
2023-04-03T17:55:17.942Z,94221.72
2023-04-03T17:57:46.763Z,94215.52
2023-04-03T18:00:16.538Z,94216.98
2023-04-03T18:02:45.363Z,94210.34
2023-04-03T18:05:14.102Z,94200.81
2023-04-03T18:07:43.008Z,94213.56
2023-04-03T18:10:12.213Z,94209.40
2023-04-03T18:12:42.524Z,94215.27
2023-04-03T18:15:12.348Z,94206.52
2023-04-03T18:17:41.052Z,94202.94
2023-04-03T18:20:11.697Z,94191.36
2023-04-03T18:22:40.463Z,94193.70
2023-04-03T18:25:11.661Z,94204.45
2023-04-03T18:27:41.201Z,94196.67
2023-04-03T18:30:13.928Z,94192.09
2023-04-03T18:32:43.140Z,94186.61
2023-04-03T18:35:12.456Z,94192.11
2023-04-03T18:37:41.359Z,94199.13
2023-04-03T18:40:10.958Z,94195.73
2023-04-03T18:42:41.999Z,94192.72
2023-04-03T18:45:15.744Z,94167.06
2023-04-03T18:47:48.046Z,94182.26
2023-04-03T18:50:17.518Z,94179.84
2023-04-03T18:52:47.877Z,94177.19
2023-04-03T18:55:21.422Z,94182.67
2023-04-03T18:57:53.716Z,94168.63
2023-04-03T19:00:26.071Z,94180.02
2023-04-03T19:02:55.435Z,94171.68
2023-04-03T19:05:28.551Z,94171.42
2023-04-03T19:08:04.245Z,94167.06
2023-04-03T19:10:32.986Z,94157.19
2023-04-03T19:13:03.323Z,94160.97
2023-04-03T19:15:35.725Z,94136.33
2023-04-03T19:18:04.477Z,94131.75
2023-04-03T19:20:33.308Z,94125.11
2023-04-03T19:23:02.048Z,94130.83
2023-04-03T19:25:30.863Z,94131.56
2023-04-03T19:28:00.041Z,94131.38
2023-04-03T19:30:29.060Z,94124.36
2023-04-03T19:33:00.678Z,94124.73
2023-04-03T19:35:29.641Z,94124.53
2023-04-03T19:37:59.924Z,94128.70
2023-04-03T19:40:35.718Z,94129.83
2023-04-03T19:43:05.254Z,94117.71
2023-04-03T19:45:34.095Z,94113.33
2023-04-03T19:48:02.965Z,94106.12
2023-04-03T19:50:32.971Z,94106.91
2023-04-03T19:53:02.349Z,94107.47
2023-04-03T19:55:31.691Z,94115.45
2023-04-03T19:58:10.339Z,94112.41
2023-04-03T20:04:19.734Z,94091.30
2023-04-03T20:06:49.853Z,94112.17
2023-04-03T20:09:18.762Z,94103.42
2023-04-03T20:11:47.570Z,94100.97
2023-04-03T20:14:18.392Z,94095.87
2023-04-03T20:16:47.541Z,94101.92
2023-04-03T20:19:19.563Z,94109.71
2023-04-03T20:21:49.178Z,94106.08
2023-04-03T20:24:21.245Z,94098.33
2023-04-03T20:26:53.568Z,94096.98
2023-04-03T20:29:23.814Z,94093.37
2023-04-03T20:31:59.498Z,94087.88
2023-04-03T20:34:31.139Z,94085.40
2023-04-03T20:37:00.377Z,94083.15
2023-04-03T20:39:31.459Z,94081.23
2023-04-03T20:42:06.380Z,94080.87
2023-04-03T20:44:41.702Z,94066.84
2023-04-03T20:50:45.841Z,94078.19
2023-04-03T20:53:44.540Z,94077.66
2023-04-03T20:56:16.887Z,94070.63
2023-04-03T21:02:38.867Z,94077.68
2023-04-03T21:12:28.698Z,94086.03
2023-04-03T21:15:26.287Z,94090.20
2023-04-03T21:18:17.269Z,94086.77
2023-04-03T21:20:56.679Z,94071.23
2023-04-03T21:23:28.655Z,94059.66
2023-04-03T21:25:58.224Z,94054.91
2023-04-03T21:28:27.654Z,94045.42
2023-04-03T21:30:56.651Z,94045.43
2023-04-03T21:33:25.898Z,94035.75
2023-04-03T21:35:56.389Z,94024.94
2023-04-03T21:38:27.388Z,94030.81
2023-04-03T21:40:59.568Z,94020.77
2023-04-03T21:43:39.130Z,94011.30
2023-04-03T21:46:08.119Z,94007.68
2023-04-03T21:48:37.822Z,94003.88
2023-04-03T21:51:07.112Z,93998.73
2023-04-03T21:53:36.216Z,94002.92
2023-04-03T21:56:05.106Z,93999.52
2023-04-03T21:58:34.738Z,93998.19
2023-04-03T22:01:16.466Z,94006.34
2023-04-03T22:03:46.963Z,93997.59
2023-04-03T22:06:17.476Z,93983.20
2023-04-03T22:08:50.301Z,93973.52
2023-04-03T22:11:21.350Z,93974.46
2023-04-03T22:14:01.150Z,93983.58
2023-04-03T22:16:30.001Z,93976.37
2023-04-03T22:19:01.453Z,93990.97
2023-04-03T22:21:30.119Z,93975.45
2023-04-03T22:23:59.379Z,93983.02
2023-04-03T22:26:35.035Z,93982.81
2023-04-03T22:29:03.972Z,93978.84
2023-04-03T22:31:32.893Z,93982.66
2023-04-03T22:34:03.214Z,93975.81
2023-04-03T22:36:31.922Z,93966.91
2023-04-03T22:39:05.989Z,93972.58
2023-04-03T22:41:35.294Z,93958.94
2023-04-03T22:44:03.990Z,93952.88
2023-04-03T22:46:32.856Z,93929.75
2023-04-03T22:49:01.646Z,93916.26
2023-04-03T22:51:30.475Z,93931.24
2023-04-03T22:53:59.225Z,93953.81
2023-04-03T22:56:27.943Z,93949.23
2023-04-03T22:58:57.492Z,93949.27
2023-04-03T23:01:26.737Z,93947.95
2023-04-03T23:03:55.895Z,93944.13
2023-04-03T23:06:24.631Z,93937.52
2023-04-03T23:08:53.376Z,93943.03
2023-04-03T23:11:21.986Z,93938.07
2023-04-03T23:13:50.728Z,93943.21
2023-04-03T23:16:19.666Z,93937.88
2023-04-03T23:18:50.116Z,93938.47
2023-04-03T23:21:18.696Z,93939.80
2023-04-03T23:23:47.371Z,93930.52
2023-04-03T23:26:15.926Z,93930.69
2023-04-03T23:28:44.629Z,93930.51
2023-04-03T23:31:13.291Z,93928.97
2023-04-03T23:33:43.489Z,93924.61
2023-04-03T23:36:13.711Z,93916.45
2023-04-03T23:38:43.111Z,93920.06
2023-04-03T23:41:12.897Z,93923.47
2023-04-03T23:43:42.364Z,93928.41
2023-04-03T23:46:11.217Z,93907.35
2023-04-03T23:48:40.040Z,93904.70
2023-04-03T23:51:08.753Z,93907.92
2023-04-03T23:53:37.382Z,93907.74
2023-04-03T23:56:07.835Z,93904.70
2023-04-03T23:58:36.474Z,93899.39
